sensor_id;sensor_type;location;lat;lon;timestamp;P1;durP1;ratioP1;P2;durP2;ratioP2
25972;SDS011;13765;51.166;4.466;2023-07-31T00:02:12;23.75;;;6.35;;
25972;SDS011;13765;51.166;4.466;2023-07-31T00:04:38;28.67;;;6.57;;
25972;SDS011;13765;51.166;4.466;2023-07-31T00:07:03;21.92;;;4.63;;
25972;SDS011;13765;51.166;4.466;2023-07-31T00:09:34;24.85;;;6.05;;
25972;SDS011;13765;51.166;4.466;2023-07-31T00:12:00;20.67;;;6.45;;
25972;SDS011;13765;51.166;4.466;2023-07-31T00:14:28;26.83;;;6.43;;
25972;SDS011;13765;51.166;4.466;2023-07-31T00:16:54;23.77;;;5.60;;
25972;SDS011;13765;51.166;4.466;2023-07-31T00:19:19;22.08;;;5.90;;
25972;SDS011;13765;51.166;4.466;2023-07-31T00:21:45;24.05;;;5.13;;
25972;SDS011;13765;51.166;4.466;2023-07-31T00:24:10;22.75;;;6.30;;
25972;SDS011;13765;51.166;4.466;2023-07-31T00:26:39;27.23;;;6.60;;
25972;SDS011;13765;51.166;4.466;2023-07-31T00:29:09;28.98;;;7.50;;
25972;SDS011;13765;51.166;4.466;2023-07-31T00:31:34;24.80;;;5.57;;
25972;SDS011;13765;51.166;4.466;2023-07-31T00:34:00;30.10;;;6.85;;
25972;SDS011;13765;51.166;4.466;2023-07-31T00:36:26;25.58;;;6.28;;
25972;SDS011;13765;51.166;4.466;2023-07-31T00:38:53;26.73;;;6.80;;
25972;SDS011;13765;51.166;4.466;2023-07-31T00:41:24;23.23;;;6.22;;
25972;SDS011;13765;51.166;4.466;2023-07-31T00:43:51;26.65;;;6.47;;
25972;SDS011;13765;51.166;4.466;2023-07-31T00:46:19;20.95;;;6.25;;
25972;SDS011;13765;51.166;4.466;2023-07-31T00:48:48;20.02;;;5.43;;
25972;SDS011;13765;51.166;4.466;2023-07-31T00:51:14;22.50;;;6.32;;
25972;SDS011;13765;51.166;4.466;2023-07-31T00:53:42;25.10;;;6.80;;
25972;SDS011;13765;51.166;4.466;2023-07-31T00:56:11;23.70;;;5.75;;
25972;SDS011;13765;51.166;4.466;2023-07-31T00:58:41;24.45;;;6.00;;
25972;SDS011;13765;51.166;4.466;2023-07-31T01:01:09;22.80;;;5.97;;
25972;SDS011;13765;51.166;4.466;2023-07-31T01:03:37;22.15;;;5.95;;
25972;SDS011;13765;51.166;4.466;2023-07-31T01:09:11;20.42;;;5.55;;
25972;SDS011;13765;51.166;4.466;2023-07-31T01:12:06;20.00;;;5.80;;
25972;SDS011;13765;51.166;4.466;2023-07-31T01:14:32;26.52;;;6.10;;
25972;SDS011;13765;51.166;4.466;2023-07-31T01:16:58;21.20;;;5.85;;
25972;SDS011;13765;51.166;4.466;2023-07-31T01:19:26;24.48;;;7.30;;
25972;SDS011;13765;51.166;4.466;2023-07-31T01:27:37;21.80;;;5.72;;
25972;SDS011;13765;51.166;4.466;2023-07-31T01:30:28;28.00;;;6.40;;
25972;SDS011;13765;51.166;4.466;2023-07-31T01:33:08;25.13;;;6.10;;
25972;SDS011;13765;51.166;4.466;2023-07-31T01:35:37;21.75;;;5.68;;
25972;SDS011;13765;51.166;4.466;2023-07-31T01:38:04;22.67;;;6.07;;
25972;SDS011;13765;51.166;4.466;2023-07-31T01:40:30;20.40;;;5.80;;
25972;SDS011;13765;51.166;4.466;2023-07-31T01:42:56;20.73;;;5.50;;
25972;SDS011;13765;51.166;4.466;2023-07-31T01:45:23;22.20;;;5.80;;
25972;SDS011;13765;51.166;4.466;2023-07-31T01:47:49;23.38;;;6.65;;
25972;SDS011;13765;51.166;4.466;2023-07-31T01:50:17;27.63;;;6.65;;
25972;SDS011;13765;51.166;4.466;2023-07-31T01:52:47;22.95;;;6.15;;
25972;SDS011;13765;51.166;4.466;2023-07-31T01:55:15;19.30;;;6.22;;
25972;SDS011;13765;51.166;4.466;2023-07-31T01:57:43;23.48;;;6.20;;
25972;SDS011;13765;51.166;4.466;2023-07-31T02:00:09;23.02;;;5.70;;
25972;SDS011;13765;51.166;4.466;2023-07-31T02:02:37;24.85;;;5.95;;
25972;SDS011;13765;51.166;4.466;2023-07-31T02:05:03;23.33;;;5.55;;
25972;SDS011;13765;51.166;4.466;2023-07-31T02:07:29;24.27;;;5.82;;
25972;SDS011;13765;51.166;4.466;2023-07-31T02:09:57;21.42;;;5.53;;
25972;SDS011;13765;51.166;4.466;2023-07-31T02:12:22;22.33;;;5.30;;
25972;SDS011;13765;51.166;4.466;2023-07-31T02:14:48;21.38;;;5.63;;
25972;SDS011;13765;51.166;4.466;2023-07-31T02:17:16;20.52;;;5.18;;
25972;SDS011;13765;51.166;4.466;2023-07-31T02:19:42;23.95;;;5.88;;
25972;SDS011;13765;51.166;4.466;2023-07-31T02:22:07;27.00;;;6.07;;
25972;SDS011;13765;51.166;4.466;2023-07-31T02:24:33;20.52;;;5.60;;
25972;SDS011;13765;51.166;4.466;2023-07-31T02:26:59;26.50;;;6.80;;
25972;SDS011;13765;51.166;4.466;2023-07-31T02:29:29;21.50;;;5.95;;
25972;SDS011;13765;51.166;4.466;2023-07-31T02:31:55;20.98;;;5.28;;
25972;SDS011;13765;51.166;4.466;2023-07-31T02:34:23;20.73;;;5.95;;
25972;SDS011;13765;51.166;4.466;2023-07-31T02:36:53;19.58;;;5.40;;
25972;SDS011;13765;51.166;4.466;2023-07-31T02:39:21;19.13;;;5.07;;
25972;SDS011;13765;51.166;4.466;2023-07-31T02:41:46;24.48;;;6.20;;
25972;SDS011;13765;51.166;4.466;2023-07-31T02:44:12;21.00;;;6.47;;
25972;SDS011;13765;51.166;4.466;2023-07-31T02:46:39;20.77;;;5.07;;
25972;SDS011;13765;51.166;4.466;2023-07-31T02:49:07;19.45;;;5.25;;
25972;SDS011;13765;51.166;4.466;2023-07-31T02:51:33;24.10;;;6.38;;
25972;SDS011;13765;51.166;4.466;2023-07-31T02:53:58;24.83;;;7.03;;
25972;SDS011;13765;51.166;4.466;2023-07-31T02:56:24;25.75;;;5.97;;
25972;SDS011;13765;51.166;4.466;2023-07-31T02:58:50;24.80;;;6.35;;
25972;SDS011;13765;51.166;4.466;2023-07-31T03:01:15;22.08;;;5.70;;
25972;SDS011;13765;51.166;4.466;2023-07-31T03:03:41;20.02;;;5.18;;
25972;SDS011;13765;51.166;4.466;2023-07-31T03:06:07;23.02;;;5.80;;
25972;SDS011;13765;51.166;4.466;2023-07-31T03:08:37;18.92;;;5.35;;
25972;SDS011;13765;51.166;4.466;2023-07-31T03:11:03;23.52;;;5.13;;
25972;SDS011;13765;51.166;4.466;2023-07-31T03:13:33;25.17;;;6.25;;
25972;SDS011;13765;51.166;4.466;2023-07-31T03:16:03;22.38;;;5.78;;
25972;SDS011;13765;51.166;4.466;2023-07-31T03:18:29;22.92;;;5.45;;
25972;SDS011;13765;51.166;4.466;2023-07-31T03:20:54;27.45;;;6.15;;
25972;SDS011;13765;51.166;4.466;2023-07-31T03:23:20;21.38;;;5.47;;
25972;SDS011;13765;51.166;4.466;2023-07-31T03:26:01;19.25;;;5.65;;
25972;SDS011;13765;51.166;4.466;2023-07-31T03:28:28;20.02;;;6.20;;
25972;SDS011;13765;51.166;4.466;2023-07-31T03:30:54;21.08;;;5.13;;
25972;SDS011;13765;51.166;4.466;2023-07-31T03:33:22;22.27;;;6.00;;
25972;SDS011;13765;51.166;4.466;2023-07-31T03:35:51;29.75;;;7.60;;
25972;SDS011;13765;51.166;4.466;2023-07-31T03:38:17;24.80;;;6.10;;
25972;SDS011;13765;51.166;4.466;2023-07-31T03:40:44;18.60;;;5.20;;
25972;SDS011;13765;51.166;4.466;2023-07-31T03:43:13;27.08;;;5.68;;
25972;SDS011;13765;51.166;4.466;2023-07-31T03:45:40;25.80;;;6.00;;
25972;SDS011;13765;51.166;4.466;2023-07-31T03:48:06;20.77;;;5.28;;
25972;SDS011;13765;51.166;4.466;2023-07-31T03:50:32;23.30;;;6.13;;
25972;SDS011;13765;51.166;4.466;2023-07-31T03:52:58;21.27;;;6.22;;
25972;SDS011;13765;51.166;4.466;2023-07-31T03:55:24;26.60;;;7.15;;
25972;SDS011;13765;51.166;4.466;2023-07-31T03:57:49;23.55;;;6.35;;
25972;SDS011;13765;51.166;4.466;2023-07-31T04:00:15;22.02;;;6.53;;
25972;SDS011;13765;51.166;4.466;2023-07-31T04:02:41;24.95;;;6.03;;
25972;SDS011;13765;51.166;4.466;2023-07-31T04:05:07;23.33;;;6.45;;
25972;SDS011;13765;51.166;4.466;2023-07-31T04:07:33;26.95;;;6.13;;
25972;SDS011;13765;51.166;4.466;2023-07-31T04:10:03;17.45;;;6.20;;
25972;SDS011;13765;51.166;4.466;2023-07-31T04:12:29;24.35;;;6.03;;
25972;SDS011;13765;51.166;4.466;2023-07-31T04:14:54;21.83;;;6.07;;
25972;SDS011;13765;51.166;4.466;2023-07-31T04:17:20;18.00;;;5.57;;
25972;SDS011;13765;51.166;4.466;2023-07-31T04:19:46;21.98;;;6.00;;
25972;SDS011;13765;51.166;4.466;2023-07-31T04:22:16;20.60;;;6.35;;
25972;SDS011;13765;51.166;4.466;2023-07-31T04:24:44;17.80;;;5.00;;
25972;SDS011;13765;51.166;4.466;2023-07-31T04:27:09;18.67;;;5.72;;
25972;SDS011;13765;51.166;4.466;2023-07-31T04:29:35;18.70;;;5.90;;
25972;SDS011;13765;51.166;4.466;2023-07-31T04:32:01;24.52;;;6.43;;
25972;SDS011;13765;51.166;4.466;2023-07-31T04:34:28;17.20;;;5.70;;
25972;SDS011;13765;51.166;4.466;2023-07-31T04:36:56;18.55;;;5.90;;
25972;SDS011;13765;51.166;4.466;2023-07-31T04:39:24;17.95;;;6.10;;
25972;SDS011;13765;51.166;4.466;2023-07-31T04:41:50;22.58;;;7.05;;
25972;SDS011;13765;51.166;4.466;2023-07-31T04:44:15;19.90;;;6.18;;
25972;SDS011;13765;51.166;4.466;2023-07-31T04:46:45;19.30;;;5.53;;
25972;SDS011;13765;51.166;4.466;2023-07-31T04:49:16;20.50;;;5.95;;
25972;SDS011;13765;51.166;4.466;2023-07-31T04:51:41;17.77;;;6.38;;
25972;SDS011;13765;51.166;4.466;2023-07-31T04:54:07;19.55;;;5.85;;
25972;SDS011;13765;51.166;4.466;2023-07-31T04:56:37;22.70;;;6.13;;
25972;SDS011;13765;51.166;4.466;2023-07-31T04:59:03;16.08;;;6.15;;
25972;SDS011;13765;51.166;4.466;2023-07-31T05:01:28;15.85;;;5.53;;
25972;SDS011;13765;51.166;4.466;2023-07-31T05:03:54;18.92;;;6.43;;
25972;SDS011;13765;51.166;4.466;2023-07-31T05:06:20;18.17;;;6.07;;
25972;SDS011;13765;51.166;4.466;2023-07-31T05:08:45;17.88;;;6.40;;
25972;SDS011;13765;51.166;4.466;2023-07-31T05:11:11;19.25;;;5.63;;
25972;SDS011;13765;51.166;4.466;2023-07-31T05:13:37;20.83;;;6.75;;
25972;SDS011;13765;51.166;4.466;2023-07-31T05:16:07;15.07;;;5.57;;
25972;SDS011;13765;51.166;4.466;2023-07-31T05:18:35;19.08;;;6.28;;
25972;SDS011;13765;51.166;4.466;2023-07-31T05:21:03;19.92;;;6.40;;
25972;SDS011;13765;51.166;4.466;2023-07-31T05:23:29;19.98;;;6.53;;
25972;SDS011;13765;51.166;4.466;2023-07-31T05:26:02;16.67;;;5.88;;
25972;SDS011;13765;51.166;4.466;2023-07-31T05:28:37;19.15;;;7.20;;
25972;SDS011;13765;51.166;4.466;2023-07-31T05:31:03;18.98;;;6.35;;
25972;SDS011;13765;51.166;4.466;2023-07-31T05:33:29;17.77;;;6.53;;
25972;SDS011;13765;51.166;4.466;2023-07-31T05:35:55;17.48;;;6.70;;
25972;SDS011;13765;51.166;4.466;2023-07-31T05:38:21;18.95;;;6.35;;
25972;SDS011;13765;51.166;4.466;2023-07-31T05:40:47;17.95;;;6.10;;
25972;SDS011;13765;51.166;4.466;2023-07-31T05:43:13;21.50;;;6.55;;
25972;SDS011;13765;51.166;4.466;2023-07-31T05:45:44;17.30;;;5.78;;
25972;SDS011;13765;51.166;4.466;2023-07-31T05:48:09;16.98;;;6.78;;
25972;SDS011;13765;51.166;4.466;2023-07-31T05:50:35;20.67;;;6.45;;
25972;SDS011;13765;51.166;4.466;2023-07-31T05:53:04;19.75;;;6.93;;
25972;SDS011;13765;51.166;4.466;2023-07-31T05:55:32;17.88;;;6.75;;
25972;SDS011;13765;51.166;4.466;2023-07-31T05:58:01;17.88;;;6.40;;
25972;SDS011;13765;51.166;4.466;2023-07-31T06:00:27;16.20;;;6.45;;
25972;SDS011;13765;51.166;4.466;2023-07-31T06:02:56;17.90;;;5.80;;
25972;SDS011;13765;51.166;4.466;2023-07-31T06:05:26;19.35;;;6.63;;
25972;SDS011;13765;51.166;4.466;2023-07-31T06:07:54;17.75;;;6.18;;
25972;SDS011;13765;51.166;4.466;2023-07-31T06:10:22;18.27;;;6.50;;
25972;SDS011;13765;51.166;4.466;2023-07-31T06:12:52;16.70;;;6.22;;
25972;SDS011;13765;51.166;4.466;2023-07-31T06:15:19;19.58;;;6.68;;
25972;SDS011;13765;51.166;4.466;2023-07-31T06:17:45;19.38;;;6.55;;
25972;SDS011;13765;51.166;4.466;2023-07-31T06:20:11;17.15;;;5.97;;
25972;SDS011;13765;51.166;4.466;2023-07-31T06:22:36;19.00;;;6.68;;
25972;SDS011;13765;51.166;4.466;2023-07-31T06:25:05;16.20;;;6.07;;
25972;SDS011;13765;51.166;4.466;2023-07-31T06:27:33;18.33;;;6.82;;
25972;SDS011;13765;51.166;4.466;2023-07-31T06:29:59;15.10;;;5.25;;
25972;SDS011;13765;51.166;4.466;2023-07-31T06:32:24;21.25;;;6.40;;
25972;SDS011;13765;51.166;4.466;2023-07-31T06:34:50;18.63;;;5.55;;
25972;SDS011;13765;51.166;4.466;2023-07-31T06:37:15;14.77;;;5.55;;
25972;SDS011;13765;51.166;4.466;2023-07-31T06:39:43;17.92;;;5.80;;
25972;SDS011;13765;51.166;4.466;2023-07-31T06:42:09;16.35;;;5.63;;
25972;SDS011;13765;51.166;4.466;2023-07-31T06:44:34;18.80;;;5.85;;
25972;SDS011;13765;51.166;4.466;2023-07-31T06:47:00;20.50;;;5.70;;
25972;SDS011;13765;51.166;4.466;2023-07-31T06:49:28;15.95;;;5.57;;
25972;SDS011;13765;51.166;4.466;2023-07-31T06:51:53;18.25;;;6.15;;
25972;SDS011;13765;51.166;4.466;2023-07-31T06:54:19;13.45;;;5.85;;
25972;SDS011;13765;51.166;4.466;2023-07-31T06:56:47;17.25;;;4.68;;
25972;SDS011;13765;51.166;4.466;2023-07-31T06:59:17;14.55;;;5.45;;
25972;SDS011;13765;51.166;4.466;2023-07-31T07:01:45;14.35;;;5.43;;
25972;SDS011;13765;51.166;4.466;2023-07-31T07:04:11;20.67;;;6.57;;
25972;SDS011;13765;51.166;4.466;2023-07-31T07:06:36;19.10;;;6.05;;
25972;SDS011;13765;51.166;4.466;2023-07-31T07:09:04;18.60;;;6.30;;
25972;SDS011;13765;51.166;4.466;2023-07-31T07:11:35;18.15;;;5.38;;
25972;SDS011;13765;51.166;4.466;2023-07-31T07:14:04;15.48;;;6.13;;
25972;SDS011;13765;51.166;4.466;2023-07-31T07:16:30;16.45;;;5.63;;
25972;SDS011;13765;51.166;4.466;2023-07-31T07:18:58;21.90;;;6.05;;
25972;SDS011;13765;51.166;4.466;2023-07-31T07:21:24;18.00;;;5.47;;
25972;SDS011;13765;51.166;4.466;2023-07-31T07:23:49;18.20;;;5.13;;
25972;SDS011;13765;51.166;4.466;2023-07-31T07:26:15;14.13;;;5.05;;
25972;SDS011;13765;51.166;4.466;2023-07-31T07:28:41;16.05;;;4.88;;
25972;SDS011;13765;51.166;4.466;2023-07-31T07:31:06;17.00;;;5.55;;
25972;SDS011;13765;51.166;4.466;2023-07-31T07:33:34;20.95;;;5.75;;
25972;SDS011;13765;51.166;4.466;2023-07-31T07:36:00;17.63;;;5.63;;
25972;SDS011;13765;51.166;4.466;2023-07-31T07:38:29;18.08;;;5.20;;
25972;SDS011;13765;51.166;4.466;2023-07-31T07:40:55;17.67;;;5.70;;
25972;SDS011;13765;51.166;4.466;2023-07-31T07:43:22;15.82;;;5.70;;
25972;SDS011;13765;51.166;4.466;2023-07-31T07:45:50;16.25;;;5.30;;
25972;SDS011;13765;51.166;4.466;2023-07-31T07:48:16;15.07;;;5.90;;
25972;SDS011;13765;51.166;4.466;2023-07-31T07:50:44;15.68;;;5.65;;
25972;SDS011;13765;51.166;4.466;2023-07-31T07:53:10;15.27;;;5.35;;
25972;SDS011;13765;51.166;4.466;2023-07-31T07:55:41;16.08;;;5.10;;
25972;SDS011;13765;51.166;4.466;2023-07-31T07:58:07;29.02;;;7.20;;
25972;SDS011;13765;51.166;4.466;2023-07-31T08:00:38;16.77;;;5.07;;
25972;SDS011;13765;51.166;4.466;2023-07-31T08:03:04;14.02;;;4.90;;
25972;SDS011;13765;51.166;4.466;2023-07-31T08:05:32;18.98;;;5.72;;
25972;SDS011;13765;51.166;4.466;2023-07-31T08:08:00;18.67;;;5.20;;
25972;SDS011;13765;51.166;4.466;2023-07-31T08:10:28;12.43;;;4.40;;
25972;SDS011;13765;51.166;4.466;2023-07-31T08:12:54;16.83;;;5.03;;
25972;SDS011;13765;51.166;4.466;2023-07-31T08:15:19;13.40;;;4.70;;
25972;SDS011;13765;51.166;4.466;2023-07-31T08:17:45;13.88;;;4.68;;
25972;SDS011;13765;51.166;4.466;2023-07-31T08:20:11;12.13;;;4.45;;
25972;SDS011;13765;51.166;4.466;2023-07-31T08:22:36;16.02;;;4.90;;
25972;SDS011;13765;51.166;4.466;2023-07-31T08:25:02;20.33;;;4.57;;
25972;SDS011;13765;51.166;4.466;2023-07-31T08:27:28;13.82;;;4.25;;
25972;SDS011;13765;51.166;4.466;2023-07-31T08:29:54;13.50;;;4.10;;
25972;SDS011;13765;51.166;4.466;2023-07-31T08:32:19;15.23;;;5.00;;
25972;SDS011;13765;51.166;4.466;2023-07-31T08:34:45;14.80;;;4.40;;
25972;SDS011;13765;51.166;4.466;2023-07-31T08:37:10;15.32;;;4.18;;
25972;SDS011;13765;51.166;4.466;2023-07-31T08:39:38;13.48;;;5.15;;
25972;SDS011;13765;51.166;4.466;2023-07-31T08:42:07;12.65;;;4.40;;
25972;SDS011;13765;51.166;4.466;2023-07-31T08:44:34;14.98;;;4.43;;
25972;SDS011;13765;51.166;4.466;2023-07-31T08:47:02;12.75;;;4.03;;
25972;SDS011;13765;51.166;4.466;2023-07-31T08:49:29;14.95;;;4.28;;
25972;SDS011;13765;51.166;4.466;2023-07-31T08:51:55;13.93;;;4.13;;
25972;SDS011;13765;51.166;4.466;2023-07-31T08:54:23;12.65;;;3.63;;
25972;SDS011;13765;51.166;4.466;2023-07-31T08:56:49;15.25;;;4.50;;
25972;SDS011;13765;51.166;4.466;2023-07-31T08:59:15;13.93;;;4.60;;
25972;SDS011;13765;51.166;4.466;2023-07-31T09:01:47;12.75;;;3.95;;
25972;SDS011;13765;51.166;4.466;2023-07-31T09:04:15;11.80;;;3.50;;
25972;SDS011;13765;51.166;4.466;2023-07-31T09:06:46;11.85;;;3.80;;
25972;SDS011;13765;51.166;4.466;2023-07-31T09:09:17;10.75;;;3.58;;
25972;SDS011;13765;51.166;4.466;2023-07-31T09:11:43;11.57;;;3.97;;
25972;SDS011;13765;51.166;4.466;2023-07-31T09:14:10;10.40;;;3.22;;
25972;SDS011;13765;51.166;4.466;2023-07-31T09:16:50;10.93;;;3.80;;
25972;SDS011;13765;51.166;4.466;2023-07-31T09:19:24;12.10;;;3.88;;
25972;SDS011;13765;51.166;4.466;2023-07-31T09:21:51;11.82;;;3.60;;
25972;SDS011;13765;51.166;4.466;2023-07-31T09:24:27;13.40;;;3.80;;
25972;SDS011;13765;51.166;4.466;2023-07-31T09:26:57;14.88;;;4.00;;
25972;SDS011;13765;51.166;4.466;2023-07-31T09:29:27;11.25;;;4.07;;
25972;SDS011;13765;51.166;4.466;2023-07-31T09:31:55;12.55;;;4.05;;
25972;SDS011;13765;51.166;4.466;2023-07-31T09:34:28;13.63;;;3.70;;
25972;SDS011;13765;51.166;4.466;2023-07-31T09:37:05;10.02;;;3.92;;
25972;SDS011;13765;51.166;4.466;2023-07-31T09:39:33;11.73;;;3.85;;
25972;SDS011;13765;51.166;4.466;2023-07-31T09:42:11;12.02;;;3.88;;
25972;SDS011;13765;51.166;4.466;2023-07-31T09:44:38;15.45;;;4.18;;
25972;SDS011;13765;51.166;4.466;2023-07-31T09:47:05;13.45;;;4.10;;
25972;SDS011;13765;51.166;4.466;2023-07-31T09:49:34;12.07;;;4.45;;
25972;SDS011;13765;51.166;4.466;2023-07-31T09:52:01;11.55;;;3.97;;
25972;SDS011;13765;51.166;4.466;2023-07-31T09:54:37;11.70;;;4.30;;
25972;SDS011;13765;51.166;4.466;2023-07-31T09:57:05;12.93;;;3.95;;
25972;SDS011;13765;51.166;4.466;2023-07-31T09:59:31;12.85;;;3.95;;
25972;SDS011;13765;51.166;4.466;2023-07-31T10:01:59;15.85;;;5.32;;
25972;SDS011;13765;51.166;4.466;2023-07-31T10:04:26;14.98;;;4.50;;
25972;SDS011;13765;51.166;4.466;2023-07-31T10:06:54;12.93;;;4.43;;
25972;SDS011;13765;51.166;4.466;2023-07-31T10:09:22;14.63;;;4.40;;
25972;SDS011;13765;51.166;4.466;2023-07-31T10:11:52;19.45;;;4.50;;
25972;SDS011;13765;51.166;4.466;2023-07-31T10:16:55;13.60;;;4.20;;
25972;SDS011;13765;51.166;4.466;2023-07-31T10:19:22;14.98;;;4.80;;
25972;SDS011;13765;51.166;4.466;2023-07-31T10:21:48;17.20;;;5.05;;
25972;SDS011;13765;51.166;4.466;2023-07-31T10:24:14;19.10;;;4.70;;
25972;SDS011;13765;51.166;4.466;2023-07-31T10:26:40;12.18;;;4.00;;
25972;SDS011;13765;51.166;4.466;2023-07-31T10:29:12;9.02;;;3.72;;
25972;SDS011;13765;51.166;4.466;2023-07-31T10:31:40;9.63;;;3.75;;
25972;SDS011;13765;51.166;4.466;2023-07-31T10:34:09;11.73;;;3.67;;
25972;SDS011;13765;51.166;4.466;2023-07-31T10:36:37;8.27;;;3.42;;
25972;SDS011;13765;51.166;4.466;2023-07-31T10:39:04;12.07;;;3.63;;
25972;SDS011;13765;51.166;4.466;2023-07-31T10:41:30;12.60;;;3.75;;
25972;SDS011;13765;51.166;4.466;2023-07-31T10:43:59;17.50;;;4.50;;
25972;SDS011;13765;51.166;4.466;2023-07-31T10:46:27;14.30;;;4.88;;
25972;SDS011;13765;51.166;4.466;2023-07-31T10:48:59;15.02;;;4.50;;
25972;SDS011;13765;51.166;4.466;2023-07-31T10:51:34;15.35;;;4.65;;
25972;SDS011;13765;51.166;4.466;2023-07-31T10:54:10;18.52;;;6.07;;
25972;SDS011;13765;51.166;4.466;2023-07-31T10:56:44;15.13;;;4.68;;
25972;SDS011;13765;51.166;4.466;2023-07-31T10:59:11;15.95;;;4.82;;
25972;SDS011;13765;51.166;4.466;2023-07-31T11:04:21;15.45;;;5.75;;
25972;SDS011;13765;51.166;4.466;2023-07-31T11:06:56;16.67;;;5.50;;
25972;SDS011;13765;51.166;4.466;2023-07-31T11:09:30;17.55;;;5.40;;
25972;SDS011;13765;51.166;4.466;2023-07-31T11:12:02;14.95;;;5.25;;
25972;SDS011;13765;51.166;4.466;2023-07-31T11:14:30;18.33;;;6.22;;
25972;SDS011;13765;51.166;4.466;2023-07-31T11:16:58;16.13;;;6.07;;
25972;SDS011;13765;51.166;4.466;2023-07-31T11:19:24;15.73;;;5.70;;
25972;SDS011;13765;51.166;4.466;2023-07-31T11:21:53;17.10;;;6.18;;
25972;SDS011;13765;51.166;4.466;2023-07-31T11:24:24;16.20;;;6.07;;
25972;SDS011;13765;51.166;4.466;2023-07-31T11:26:52;17.35;;;6.03;;
25972;SDS011;13765;51.166;4.466;2023-07-31T11:29:18;15.65;;;5.40;;
25972;SDS011;13765;51.166;4.466;2023-07-31T11:31:54;20.02;;;7.10;;
25972;SDS011;13765;51.166;4.466;2023-07-31T11:34:22;17.52;;;6.13;;
25972;SDS011;13765;51.166;4.466;2023-07-31T11:36:54;17.95;;;6.22;;
25972;SDS011;13765;51.166;4.466;2023-07-31T11:39:24;20.42;;;5.90;;
25972;SDS011;13765;51.166;4.466;2023-07-31T11:41:52;17.45;;;6.60;;
25972;SDS011;13765;51.166;4.466;2023-07-31T11:44:24;22.73;;;6.88;;
25972;SDS011;13765;51.166;4.466;2023-07-31T11:46:49;17.65;;;6.32;;
25972;SDS011;13765;51.166;4.466;2023-07-31T11:49:18;17.48;;;6.22;;
25972;SDS011;13765;51.166;4.466;2023-07-31T11:51:46;19.27;;;5.32;;
25972;SDS011;13765;51.166;4.466;2023-07-31T11:54:14;16.40;;;6.22;;
25972;SDS011;13765;51.166;4.466;2023-07-31T11:56:40;16.77;;;6.20;;
25972;SDS011;13765;51.166;4.466;2023-07-31T11:59:08;18.50;;;5.60;;
25972;SDS011;13765;51.166;4.466;2023-07-31T12:01:34;20.77;;;5.95;;
25972;SDS011;13765;51.166;4.466;2023-07-31T12:04:03;17.58;;;5.72;;
25972;SDS011;13765;51.166;4.466;2023-07-31T12:06:35;19.73;;;5.88;;
25972;SDS011;13765;51.166;4.466;2023-07-31T12:09:06;21.73;;;5.57;;
25972;SDS011;13765;51.166;4.466;2023-07-31T12:11:53;17.70;;;5.63;;
25972;SDS011;13765;51.166;4.466;2023-07-31T12:14:25;18.25;;;5.40;;
25972;SDS011;13765;51.166;4.466;2023-07-31T12:17:08;15.55;;;5.35;;
25972;SDS011;13765;51.166;4.466;2023-07-31T12:19:34;16.63;;;5.55;;
25972;SDS011;13765;51.166;4.466;2023-07-31T12:22:00;16.02;;;5.15;;
25972;SDS011;13765;51.166;4.466;2023-07-31T12:24:26;17.25;;;5.03;;
25972;SDS011;13765;51.166;4.466;2023-07-31T12:26:54;18.00;;;5.32;;
25972;SDS011;13765;51.166;4.466;2023-07-31T12:29:33;16.33;;;5.38;;
25972;SDS011;13765;51.166;4.466;2023-07-31T12:31:59;15.52;;;4.95;;
25972;SDS011;13765;51.166;4.466;2023-07-31T12:34:28;15.02;;;5.05;;
25972;SDS011;13765;51.166;4.466;2023-07-31T12:36:55;18.38;;;5.53;;
25972;SDS011;13765;51.166;4.466;2023-07-31T12:39:21;17.27;;;5.60;;
25972;SDS011;13765;51.166;4.466;2023-07-31T12:41:47;13.63;;;5.00;;
25972;SDS011;13765;51.166;4.466;2023-07-31T12:44:15;18.88;;;6.15;;
25972;SDS011;13765;51.166;4.466;2023-07-31T12:46:40;18.38;;;5.45;;
25972;SDS011;13765;51.166;4.466;2023-07-31T12:49:06;17.90;;;5.55;;
25972;SDS011;13765;51.166;4.466;2023-07-31T12:51:32;20.08;;;5.43;;
25972;SDS011;13765;51.166;4.466;2023-07-31T12:53:57;17.52;;;5.38;;
25972;SDS011;13765;51.166;4.466;2023-07-31T12:56:25;16.05;;;4.97;;
25972;SDS011;13765;51.166;4.466;2023-07-31T12:58:51;17.48;;;4.93;;
25972;SDS011;13765;51.166;4.466;2023-07-31T13:01:16;18.50;;;5.22;;
25972;SDS011;13765;51.166;4.466;2023-07-31T13:03:44;17.08;;;4.82;;
25972;SDS011;13765;51.166;4.466;2023-07-31T13:06:10;16.13;;;5.18;;
25972;SDS011;13765;51.166;4.466;2023-07-31T13:08:38;16.30;;;5.95;;
25972;SDS011;13765;51.166;4.466;2023-07-31T13:11:04;17.17;;;6.13;;
25972;SDS011;13765;51.166;4.466;2023-07-31T13:13:29;18.42;;;5.70;;
25972;SDS011;13765;51.166;4.466;2023-07-31T13:15:58;16.58;;;5.32;;
25972;SDS011;13765;51.166;4.466;2023-07-31T13:18:26;19.02;;;5.03;;
25972;SDS011;13765;51.166;4.466;2023-07-31T13:20:52;13.63;;;5.20;;
25972;SDS011;13765;51.166;4.466;2023-07-31T13:23:21;15.35;;;4.45;;
25972;SDS011;13765;51.166;4.466;2023-07-31T13:25:48;16.60;;;4.10;;
25972;SDS011;13765;51.166;4.466;2023-07-31T13:28:14;18.38;;;5.15;;
25972;SDS011;13765;51.166;4.466;2023-07-31T13:30:40;18.20;;;5.45;;
25972;SDS011;13765;51.166;4.466;2023-07-31T13:33:08;15.57;;;5.05;;
25972;SDS011;13765;51.166;4.466;2023-07-31T13:35:35;15.13;;;4.70;;
25972;SDS011;13765;51.166;4.466;2023-07-31T13:38:01;19.35;;;6.13;;
25972;SDS011;13765;51.166;4.466;2023-07-31T13:40:27;14.93;;;5.00;;
25972;SDS011;13765;51.166;4.466;2023-07-31T13:42:52;12.18;;;4.57;;
25972;SDS011;13765;51.166;4.466;2023-07-31T13:45:19;16.25;;;5.90;;
25972;SDS011;13765;51.166;4.466;2023-07-31T13:47:45;13.43;;;4.30;;
25972;SDS011;13765;51.166;4.466;2023-07-31T13:50:10;10.48;;;3.63;;
25972;SDS011;13765;51.166;4.466;2023-07-31T13:52:36;11.45;;;3.50;;
25972;SDS011;13765;51.166;4.466;2023-07-31T13:55:02;7.88;;;3.25;;
25972;SDS011;13765;51.166;4.466;2023-07-31T13:57:30;7.03;;;2.70;;
25972;SDS011;13765;51.166;4.466;2023-07-31T13:59:58;7.45;;;3.00;;
25972;SDS011;13765;51.166;4.466;2023-07-31T14:02:29;9.48;;;3.17;;
25972;SDS011;13765;51.166;4.466;2023-07-31T14:04:59;9.70;;;3.22;;
25972;SDS011;13765;51.166;4.466;2023-07-31T14:07:28;9.95;;;3.13;;
25972;SDS011;13765;51.166;4.466;2023-07-31T14:09:55;9.10;;;2.90;;
25972;SDS011;13765;51.166;4.466;2023-07-31T14:12:21;9.18;;;2.80;;
25972;SDS011;13765;51.166;4.466;2023-07-31T14:14:49;9.00;;;3.05;;
25972;SDS011;13765;51.166;4.466;2023-07-31T14:17:14;8.07;;;2.83;;
25972;SDS011;13765;51.166;4.466;2023-07-31T14:19:41;6.93;;;2.80;;
25972;SDS011;13765;51.166;4.466;2023-07-31T14:22:07;9.27;;;2.85;;
25972;SDS011;13765;51.166;4.466;2023-07-31T14:24:32;8.23;;;2.55;;
25972;SDS011;13765;51.166;4.466;2023-07-31T14:26:59;5.90;;;2.55;;
25972;SDS011;13765;51.166;4.466;2023-07-31T14:29:27;6.60;;;2.40;;
25972;SDS011;13765;51.166;4.466;2023-07-31T14:31:55;6.75;;;2.25;;
25972;SDS011;13765;51.166;4.466;2023-07-31T14:34:21;8.57;;;3.50;;
25972;SDS011;13765;51.166;4.466;2023-07-31T14:36:46;6.97;;;2.63;;
25972;SDS011;13765;51.166;4.466;2023-07-31T14:39:14;10.20;;;3.05;;
25972;SDS011;13765;51.166;4.466;2023-07-31T14:41:40;8.15;;;2.67;;
25972;SDS011;13765;51.166;4.466;2023-07-31T14:44:08;6.20;;;2.92;;
25972;SDS011;13765;51.166;4.466;2023-07-31T14:46:36;9.75;;;3.35;;
25972;SDS011;13765;51.166;4.466;2023-07-31T14:49:01;8.52;;;3.30;;
25972;SDS011;13765;51.166;4.466;2023-07-31T14:51:34;10.27;;;3.58;;
25972;SDS011;13765;51.166;4.466;2023-07-31T14:54:02;10.27;;;3.40;;